sensor_id;sensor_type;location;lat;lon;timestamp;P1;durP1;ratioP1;P2;durP2;ratioP2
41275;SDS011;27010;47.718;12.912;2023-01-30T00:01:16;6.17;;;3.27;;
41275;SDS011;27010;47.718;12.912;2023-01-30T00:04:20;6.00;;;3.37;;
41275;SDS011;27010;47.718;12.912;2023-01-30T00:07:22;5.53;;;3.20;;
41275;SDS011;27010;47.718;12.912;2023-01-30T00:10:24;8.00;;;3.87;;
41275;SDS011;27010;47.718;12.912;2023-01-30T00:13:26;4.30;;;3.20;;
41275;SDS011;27010;47.718;12.912;2023-01-30T00:16:28;6.20;;;3.70;;
41275;SDS011;27010;47.718;12.912;2023-01-30T00:19:30;8.60;;;4.37;;
41275;SDS011;27010;47.718;12.912;2023-01-30T00:22:32;6.00;;;3.40;;
41275;SDS011;27010;47.718;12.912;2023-01-30T00:25:34;6.17;;;3.90;;
41275;SDS011;27010;47.718;12.912;2023-01-30T00:28:36;7.10;;;4.57;;
41275;SDS011;27010;47.718;12.912;2023-01-30T00:31:40;8.93;;;4.57;;
41275;SDS011;27010;47.718;12.912;2023-01-30T00:34:42;7.13;;;3.47;;
41275;SDS011;27010;47.718;12.912;2023-01-30T00:37:43;13.53;;;6.00;;
41275;SDS011;27010;47.718;12.912;2023-01-30T00:40:46;13.00;;;6.37;;
41275;SDS011;27010;47.718;12.912;2023-01-30T00:43:48;10.00;;;5.50;;
41275;SDS011;27010;47.718;12.912;2023-01-30T00:47:09;7.07;;;4.07;;
41275;SDS011;27010;47.718;12.912;2023-01-30T00:50:11;4.23;;;2.27;;
41275;SDS011;27010;47.718;12.912;2023-01-30T00:53:13;5.63;;;2.77;;
41275;SDS011;27010;47.718;12.912;2023-01-30T00:56:16;7.23;;;3.83;;
41275;SDS011;27010;47.718;12.912;2023-01-30T00:59:19;8.17;;;5.00;;
41275;SDS011;27010;47.718;12.912;2023-01-30T01:02:21;4.80;;;3.37;;
41275;SDS011;27010;47.718;12.912;2023-01-30T01:05:23;7.10;;;4.00;;
41275;SDS011;27010;47.718;12.912;2023-01-30T01:08:25;5.67;;;3.87;;
41275;SDS011;27010;47.718;12.912;2023-01-30T01:11:27;9.33;;;4.80;;
41275;SDS011;27010;47.718;12.912;2023-01-30T01:14:29;9.10;;;5.07;;
41275;SDS011;27010;47.718;12.912;2023-01-30T01:17:31;9.50;;;5.10;;
41275;SDS011;27010;47.718;12.912;2023-01-30T01:20:33;8.53;;;4.60;;
41275;SDS011;27010;47.718;12.912;2023-01-30T01:23:35;8.17;;;5.17;;
41275;SDS011;27010;47.718;12.912;2023-01-30T01:26:37;8.33;;;4.77;;
41275;SDS011;27010;47.718;12.912;2023-01-30T01:29:40;6.00;;;3.43;;
41275;SDS011;27010;47.718;12.912;2023-01-30T01:32:41;7.23;;;4.23;;
41275;SDS011;27010;47.718;12.912;2023-01-30T01:35:44;4.30;;;2.50;;
41275;SDS011;27010;47.718;12.912;2023-01-30T01:38:48;6.70;;;3.90;;
41275;SDS011;27010;47.718;12.912;2023-01-30T01:41:50;6.33;;;2.87;;
41275;SDS011;27010;47.718;12.912;2023-01-30T01:45:00;6.70;;;3.17;;
41275;SDS011;27010;47.718;12.912;2023-01-30T01:48:11;5.73;;;3.70;;
41275;SDS011;27010;47.718;12.912;2023-01-30T01:51:18;8.03;;;3.67;;
41275;SDS011;27010;47.718;12.912;2023-01-30T01:54:32;5.97;;;3.67;;
41275;SDS011;27010;47.718;12.912;2023-01-30T01:57:47;7.67;;;3.27;;
41275;SDS011;27010;47.718;12.912;2023-01-30T02:00:52;3.97;;;2.20;;
41275;SDS011;27010;47.718;12.912;2023-01-30T02:03:58;4.23;;;2.43;;
41275;SDS011;27010;47.718;12.912;2023-01-30T02:07:04;9.40;;;3.03;;
41275;SDS011;27010;47.718;12.912;2023-01-30T02:10:07;6.60;;;3.33;;
41275;SDS011;27010;47.718;12.912;2023-01-30T02:13:12;5.77;;;3.10;;
41275;SDS011;27010;47.718;12.912;2023-01-30T02:16:14;6.10;;;3.23;;
41275;SDS011;27010;47.718;12.912;2023-01-30T02:32:31;4.60;;;3.10;;
41275;SDS011;27010;47.718;12.912;2023-01-30T02:35:44;4.70;;;2.53;;
41275;SDS011;27010;47.718;12.912;2023-01-30T02:39:21;5.83;;;3.30;;
41275;SDS011;27010;47.718;12.912;2023-01-30T02:42:29;4.03;;;2.50;;
41275;SDS011;27010;47.718;12.912;2023-01-30T02:45:44;6.30;;;3.17;;
41275;SDS011;27010;47.718;12.912;2023-01-30T02:48:53;5.40;;;3.37;;
41275;SDS011;27010;47.718;12.912;2023-01-30T02:51:58;4.27;;;2.20;;
41275;SDS011;27010;47.718;12.912;2023-01-30T02:55:05;4.40;;;2.80;;
41275;SDS011;27010;47.718;12.912;2023-01-30T02:58:18;5.93;;;3.30;;
41275;SDS011;27010;47.718;12.912;2023-01-30T03:05:40;6.57;;;3.50;;
41275;SDS011;27010;47.718;12.912;2023-01-30T03:12:06;7.50;;;3.47;;
41275;SDS011;27010;47.718;12.912;2023-01-30T03:15:16;7.00;;;3.73;;
41275;SDS011;27010;47.718;12.912;2023-01-30T03:18:34;6.70;;;3.53;;
41275;SDS011;27010;47.718;12.912;2023-01-30T03:21:42;5.27;;;3.07;;
41275;SDS011;27010;47.718;12.912;2023-01-30T03:24:46;8.33;;;4.00;;
41275;SDS011;27010;47.718;12.912;2023-01-30T03:27:50;7.50;;;3.53;;
41275;SDS011;27010;47.718;12.912;2023-01-30T03:30:54;5.83;;;3.80;;
41275;SDS011;27010;47.718;12.912;2023-01-30T03:33:56;7.40;;;3.57;;
41275;SDS011;27010;47.718;12.912;2023-01-30T03:36:58;6.37;;;3.50;;
41275;SDS011;27010;47.718;12.912;2023-01-30T03:40:00;5.50;;;3.57;;
41275;SDS011;27010;47.718;12.912;2023-01-30T03:43:02;6.33;;;3.60;;
41275;SDS011;27010;47.718;12.912;2023-01-30T03:46:04;4.33;;;2.10;;
41275;SDS011;27010;47.718;12.912;2023-01-30T03:49:06;6.23;;;3.37;;
41275;SDS011;27010;47.718;12.912;2023-01-30T03:52:08;4.83;;;3.03;;
41275;SDS011;27010;47.718;12.912;2023-01-30T03:55:11;6.10;;;3.50;;
41275;SDS011;27010;47.718;12.912;2023-01-30T03:58:13;6.67;;;3.60;;
41275;SDS011;27010;47.718;12.912;2023-01-30T04:01:15;6.87;;;3.53;;
41275;SDS011;27010;47.718;12.912;2023-01-30T04:04:17;5.70;;;2.80;;
41275;SDS011;27010;47.718;12.912;2023-01-30T04:07:19;5.67;;;3.30;;
41275;SDS011;27010;47.718;12.912;2023-01-30T04:10:21;5.53;;;3.53;;
41275;SDS011;27010;47.718;12.912;2023-01-30T04:13:23;6.73;;;3.83;;
41275;SDS011;27010;47.718;12.912;2023-01-30T04:16:26;4.50;;;2.73;;
41275;SDS011;27010;47.718;12.912;2023-01-30T04:19:28;4.50;;;2.80;;
41275;SDS011;27010;47.718;12.912;2023-01-30T04:22:30;7.83;;;3.47;;
41275;SDS011;27010;47.718;12.912;2023-01-30T04:25:32;10.40;;;3.60;;
41275;SDS011;27010;47.718;12.912;2023-01-30T04:28:34;7.50;;;3.00;;
41275;SDS011;27010;47.718;12.912;2023-01-30T04:31:37;5.77;;;2.83;;
41275;SDS011;27010;47.718;12.912;2023-01-30T04:34:39;8.23;;;3.73;;
41275;SDS011;27010;47.718;12.912;2023-01-30T04:37:41;4.33;;;2.53;;
41275;SDS011;27010;47.718;12.912;2023-01-30T04:40:46;6.07;;;3.43;;
41275;SDS011;27010;47.718;12.912;2023-01-30T04:43:52;3.23;;;2.33;;
41275;SDS011;27010;47.718;12.912;2023-01-30T04:46:53;5.37;;;2.53;;
41275;SDS011;27010;47.718;12.912;2023-01-30T04:49:56;3.23;;;2.10;;
41275;SDS011;27010;47.718;12.912;2023-01-30T04:52:58;7.43;;;3.43;;
41275;SDS011;27010;47.718;12.912;2023-01-30T04:56:00;7.20;;;3.50;;
41275;SDS011;27010;47.718;12.912;2023-01-30T04:59:02;6.97;;;3.17;;
41275;SDS011;27010;47.718;12.912;2023-01-30T05:02:04;6.47;;;3.57;;
41275;SDS011;27010;47.718;12.912;2023-01-30T05:05:06;6.73;;;3.70;;
41275;SDS011;27010;47.718;12.912;2023-01-30T05:08:09;5.27;;;2.90;;
41275;SDS011;27010;47.718;12.912;2023-01-30T05:11:10;5.57;;;2.67;;
41275;SDS011;27010;47.718;12.912;2023-01-30T05:14:13;5.23;;;3.53;;
41275;SDS011;27010;47.718;12.912;2023-01-30T05:17:15;6.27;;;3.20;;
41275;SDS011;27010;47.718;12.912;2023-01-30T05:20:17;5.73;;;2.93;;
41275;SDS011;27010;47.718;12.912;2023-01-30T05:23:19;4.73;;;3.20;;
41275;SDS011;27010;47.718;12.912;2023-01-30T05:26:21;7.20;;;3.70;;
41275;SDS011;27010;47.718;12.912;2023-01-30T05:29:24;6.43;;;3.33;;
41275;SDS011;27010;47.718;12.912;2023-01-30T05:32:26;8.17;;;4.03;;
41275;SDS011;27010;47.718;12.912;2023-01-30T05:35:32;6.67;;;3.43;;
41275;SDS011;27010;47.718;12.912;2023-01-30T05:38:35;4.07;;;2.87;;
41275;SDS011;27010;47.718;12.912;2023-01-30T05:41:37;4.37;;;2.50;;
41275;SDS011;27010;47.718;12.912;2023-01-30T05:44:39;6.17;;;3.00;;
41275;SDS011;27010;47.718;12.912;2023-01-30T05:47:41;6.45;;;4.35;;
41275;SDS011;27010;47.718;12.912;2023-01-30T05:50:43;5.77;;;3.40;;
41275;SDS011;27010;47.718;12.912;2023-01-30T05:53:45;7.17;;;4.10;;
41275;SDS011;27010;47.718;12.912;2023-01-30T05:56:50;3.30;;;2.67;;
41275;SDS011;27010;47.718;12.912;2023-01-30T05:59:52;4.80;;;2.77;;
41275;SDS011;27010;47.718;12.912;2023-01-30T06:02:54;6.17;;;3.20;;
41275;SDS011;27010;47.718;12.912;2023-01-30T06:05:56;3.30;;;2.50;;
41275;SDS011;27010;47.718;12.912;2023-01-30T06:08:58;5.13;;;2.90;;
41275;SDS011;27010;47.718;12.912;2023-01-30T06:12:00;5.73;;;2.83;;
41275;SDS011;27010;47.718;12.912;2023-01-30T06:15:05;5.57;;;3.17;;
41275;SDS011;27010;47.718;12.912;2023-01-30T06:18:11;5.07;;;3.03;;
41275;SDS011;27010;47.718;12.912;2023-01-30T06:21:13;5.73;;;2.60;;
41275;SDS011;27010;47.718;12.912;2023-01-30T06:24:15;3.07;;;2.00;;
41275;SDS011;27010;47.718;12.912;2023-01-30T06:27:18;5.23;;;1.63;;
41275;SDS011;27010;47.718;12.912;2023-01-30T06:30:20;6.60;;;2.67;;
41275;SDS011;27010;47.718;12.912;2023-01-30T06:33:22;4.20;;;1.80;;
41275;SDS011;27010;47.718;12.912;2023-01-30T06:36:24;4.17;;;2.50;;
41275;SDS011;27010;47.718;12.912;2023-01-30T06:39:26;5.17;;;2.33;;
41275;SDS011;27010;47.718;12.912;2023-01-30T06:42:28;5.93;;;3.00;;
41275;SDS011;27010;47.718;12.912;2023-01-30T06:45:30;7.60;;;3.20;;
41275;SDS011;27010;47.718;12.912;2023-01-30T06:48:32;4.50;;;2.90;;
41275;SDS011;27010;47.718;12.912;2023-01-30T06:51:34;4.00;;;2.50;;
41275;SDS011;27010;47.718;12.912;2023-01-30T06:54:37;4.93;;;2.60;;
41275;SDS011;27010;47.718;12.912;2023-01-30T06:57:39;4.57;;;2.50;;
41275;SDS011;27010;47.718;12.912;2023-01-30T07:00:41;6.73;;;3.30;;
41275;SDS011;27010;47.718;12.912;2023-01-30T07:03:44;6.57;;;3.30;;
41275;SDS011;27010;47.718;12.912;2023-01-30T07:06:46;8.40;;;2.97;;
41275;SDS011;27010;47.718;12.912;2023-01-30T07:09:48;5.93;;;3.17;;
41275;SDS011;27010;47.718;12.912;2023-01-30T07:13:07;5.43;;;3.60;;
41275;SDS011;27010;47.718;12.912;2023-01-30T07:16:09;4.73;;;2.93;;
41275;SDS011;27010;47.718;12.912;2023-01-30T07:19:11;7.37;;;3.40;;
41275;SDS011;27010;47.718;12.912;2023-01-30T07:22:14;3.37;;;1.97;;
41275;SDS011;27010;47.718;12.912;2023-01-30T07:25:17;3.67;;;2.40;;
41275;SDS011;27010;47.718;12.912;2023-01-30T07:28:20;6.20;;;2.63;;
41275;SDS011;27010;47.718;12.912;2023-01-30T07:31:22;4.37;;;3.00;;
41275;SDS011;27010;47.718;12.912;2023-01-30T07:34:25;6.23;;;3.30;;
41275;SDS011;27010;47.718;12.912;2023-01-30T07:37:27;4.53;;;3.10;;
41275;SDS011;27010;47.718;12.912;2023-01-30T07:40:29;16.47;;;9.23;;
41275;SDS011;27010;47.718;12.912;2023-01-30T07:43:31;14.83;;;9.27;;
41275;SDS011;27010;47.718;12.912;2023-01-30T07:46:33;7.43;;;5.00;;
41275;SDS011;27010;47.718;12.912;2023-01-30T07:49:35;5.57;;;3.03;;
41275;SDS011;27010;47.718;12.912;2023-01-30T07:52:38;3.80;;;2.33;;
41275;SDS011;27010;47.718;12.912;2023-01-30T07:55:40;5.67;;;3.17;;
41275;SDS011;27010;47.718;12.912;2023-01-30T07:58:43;5.57;;;3.40;;
41275;SDS011;27010;47.718;12.912;2023-01-30T08:01:45;4.10;;;2.90;;
41275;SDS011;27010;47.718;12.912;2023-01-30T08:04:47;4.60;;;3.50;;
41275;SDS011;27010;47.718;12.912;2023-01-30T08:07:49;5.83;;;3.17;;
41275;SDS011;27010;47.718;12.912;2023-01-30T08:10:51;5.17;;;3.20;;
41275;SDS011;27010;47.718;12.912;2023-01-30T08:13:55;5.53;;;3.27;;
41275;SDS011;27010;47.718;12.912;2023-01-30T08:16:57;4.37;;;2.50;;
41275;SDS011;27010;47.718;12.912;2023-01-30T08:19:59;3.23;;;1.80;;
41275;SDS011;27010;47.718;12.912;2023-01-30T08:23:01;5.33;;;2.33;;
41275;SDS011;27010;47.718;12.912;2023-01-30T08:26:03;4.33;;;2.50;;
41275;SDS011;27010;47.718;12.912;2023-01-30T08:29:06;4.63;;;2.53;;
41275;SDS011;27010;47.718;12.912;2023-01-30T08:32:08;5.60;;;2.63;;
41275;SDS011;27010;47.718;12.912;2023-01-30T08:35:11;4.10;;;2.73;;
41275;SDS011;27010;47.718;12.912;2023-01-30T08:38:13;3.73;;;2.40;;
41275;SDS011;27010;47.718;12.912;2023-01-30T08:44:43;4.37;;;2.07;;
41275;SDS011;27010;47.718;12.912;2023-01-30T08:47:46;4.37;;;2.60;;
41275;SDS011;27010;47.718;12.912;2023-01-30T08:50:51;4.07;;;2.87;;
41275;SDS011;27010;47.718;12.912;2023-01-30T08:53:55;4.30;;;2.67;;
41275;SDS011;27010;47.718;12.912;2023-01-30T08:56:57;4.53;;;3.27;;
41275;SDS011;27010;47.718;12.912;2023-01-30T09:00:00;3.80;;;1.83;;
41275;SDS011;27010;47.718;12.912;2023-01-30T09:03:02;3.73;;;1.97;;
41275;SDS011;27010;47.718;12.912;2023-01-30T09:06:04;2.77;;;1.93;;
41275;SDS011;27010;47.718;12.912;2023-01-30T09:09:06;2.97;;;2.17;;
41275;SDS011;27010;47.718;12.912;2023-01-30T09:12:08;5.30;;;2.10;;
41275;SDS011;27010;47.718;12.912;2023-01-30T09:15:10;5.00;;;2.57;;
41275;SDS011;27010;47.718;12.912;2023-01-30T09:18:12;2.47;;;1.87;;
41275;SDS011;27010;47.718;12.912;2023-01-30T09:21:14;3.63;;;2.43;;
41275;SDS011;27010;47.718;12.912;2023-01-30T09:24:16;3.63;;;2.10;;
41275;SDS011;27010;47.718;12.912;2023-01-30T09:27:18;3.20;;;2.47;;
41275;SDS011;27010;47.718;12.912;2023-01-30T09:30:20;3.70;;;2.37;;
41275;SDS011;27010;47.718;12.912;2023-01-30T09:33:23;5.67;;;3.00;;
41275;SDS011;27010;47.718;12.912;2023-01-30T09:36:27;2.97;;;2.30;;
41275;SDS011;27010;47.718;12.912;2023-01-30T09:39:29;3.80;;;2.50;;
41275;SDS011;27010;47.718;12.912;2023-01-30T09:42:36;5.63;;;2.60;;
41275;SDS011;27010;47.718;12.912;2023-01-30T09:49:22;2.93;;;1.97;;
41275;SDS011;27010;47.718;12.912;2023-01-30T09:55:57;7.67;;;2.37;;
41275;SDS011;27010;47.718;12.912;2023-01-30T09:59:01;4.23;;;2.57;;
41275;SDS011;27010;47.718;12.912;2023-01-30T10:05:10;5.47;;;2.33;;
41275;SDS011;27010;47.718;12.912;2023-01-30T10:08:19;4.70;;;2.80;;
41275;SDS011;27010;47.718;12.912;2023-01-30T10:15:18;2.97;;;1.77;;
41275;SDS011;27010;47.718;12.912;2023-01-30T10:18:37;4.60;;;2.30;;
41275;SDS011;27010;47.718;12.912;2023-01-30T10:28:36;2.57;;;2.00;;
41275;SDS011;27010;47.718;12.912;2023-01-30T10:34:46;2.43;;;1.80;;
41275;SDS011;27010;47.718;12.912;2023-01-30T10:44:19;3.17;;;1.63;;
41275;SDS011;27010;47.718;12.912;2023-01-30T10:47:30;4.33;;;1.80;;
41275;SDS011;27010;47.718;12.912;2023-01-30T10:50:52;4.60;;;1.30;;
41275;SDS011;27010;47.718;12.912;2023-01-30T10:54:11;2.27;;;1.37;;
41275;SDS011;27010;47.718;12.912;2023-01-30T11:01:06;3.47;;;1.43;;
41275;SDS011;27010;47.718;12.912;2023-01-30T11:04:31;2.47;;;1.33;;
41275;SDS011;27010;47.718;12.912;2023-01-30T11:07:42;2.00;;;1.03;;
41275;SDS011;27010;47.718;12.912;2023-01-30T11:10:44;3.87;;;1.50;;
41275;SDS011;27010;47.718;12.912;2023-01-30T11:13:46;3.50;;;0.97;;
41275;SDS011;27010;47.718;12.912;2023-01-30T11:16:54;1.60;;;1.13;;
41275;SDS011;27010;47.718;12.912;2023-01-30T11:20:00;3.00;;;0.90;;
41275;SDS011;27010;47.718;12.912;2023-01-30T11:26:28;2.07;;;0.70;;
41275;SDS011;27010;47.718;12.912;2023-01-30T11:29:47;2.93;;;0.90;;
41275;SDS011;27010;47.718;12.912;2023-01-30T11:32:51;2.00;;;1.00;;
41275;SDS011;27010;47.718;12.912;2023-01-30T11:36:25;2.20;;;1.10;;
41275;SDS011;27010;47.718;12.912;2023-01-30T11:39:29;3.10;;;0.60;;
41275;SDS011;27010;47.718;12.912;2023-01-30T11:42:31;3.87;;;2.77;;
41275;SDS011;27010;47.718;12.912;2023-01-30T11:45:37;1.03;;;0.80;;
41275;SDS011;27010;47.718;12.912;2023-01-30T11:52:25;0.90;;;0.80;;
41275;SDS011;27010;47.718;12.912;2023-01-30T11:55:29;1.43;;;0.87;;
41275;SDS011;27010;47.718;12.912;2023-01-30T11:58:37;1.70;;;1.10;;
41275;SDS011;27010;47.718;12.912;2023-01-30T12:01:40;1.47;;;0.63;;
41275;SDS011;27010;47.718;12.912;2023-01-30T12:04:43;1.37;;;0.70;;
41275;SDS011;27010;47.718;12.912;2023-01-30T12:07:51;1.53;;;0.70;;
41275;SDS011;27010;47.718;12.912;2023-01-30T12:10:54;2.43;;;0.80;;
41275;SDS011;27010;47.718;12.912;2023-01-30T12:14:12;1.03;;;0.90;;
41275;SDS011;27010;47.718;12.912;2023-01-30T12:23:47;2.57;;;1.33;;
41275;SDS011;27010;47.718;12.912;2023-01-30T12:26:56;1.30;;;0.97;;
41275;SDS011;27010;47.718;12.912;2023-01-30T12:33:18;7.37;;;3.47;;
41275;SDS011;27010;47.718;12.912;2023-01-30T12:36:32;2.27;;;1.50;;
41275;SDS011;27010;47.718;12.912;2023-01-30T12:39:54;2.10;;;1.50;;
41275;SDS011;27010;47.718;12.912;2023-01-30T12:43:16;2.40;;;0.93;;
41275;SDS011;27010;47.718;12.912;2023-01-30T12:46:51;1.97;;;1.00;;
41275;SDS011;27010;47.718;12.912;2023-01-30T12:53:20;0.97;;;0.73;;
41275;SDS011;27010;47.718;12.912;2023-01-30T12:59:39;1.63;;;0.93;;
41275;SDS011;27010;47.718;12.912;2023-01-30T13:06:19;1.87;;;1.20;;
41275;SDS011;27010;47.718;12.912;2023-01-30T13:13:37;1.10;;;0.70;;
41275;SDS011;27010;47.718;12.912;2023-01-30T13:19:34;0.93;;;0.60;;
41275;SDS011;27010;47.718;12.912;2023-01-30T13:22:55;0.63;;;0.63;;
41275;SDS011;27010;47.718;12.912;2023-01-30T13:26:10;1.43;;;0.97;;
41275;SDS011;27010;47.718;12.912;2023-01-30T13:29:17;4.07;;;1.80;;
41275;SDS011;27010;47.718;12.912;2023-01-30T13:32:41;1.23;;;0.80;;
41275;SDS011;27010;47.718;12.912;2023-01-30T13:35:45;0.53;;;0.53;;
41275;SDS011;27010;47.718;12.912;2023-01-30T13:42:01;0.50;;;0.50;;
41275;SDS011;27010;47.718;12.912;2023-01-30T13:45:12;1.07;;;0.80;;
41275;SDS011;27010;47.718;12.912;2023-01-30T13:51:44;3.67;;;2.00;;
41275;SDS011;27010;47.718;12.912;2023-01-30T13:58:25;1.43;;;0.70;;
41275;SDS011;27010;47.718;12.912;2023-01-30T14:05:06;1.07;;;0.70;;
41275;SDS011;27010;47.718;12.912;2023-01-30T14:08:11;1.03;;;0.70;;
41275;SDS011;27010;47.718;12.912;2023-01-30T14:11:33;2.73;;;0.60;;
41275;SDS011;27010;47.718;12.912;2023-01-30T14:14:37;1.10;;;0.50;;
41275;SDS011;27010;47.718;12.912;2023-01-30T14:24:21;0.87;;;0.50;;
41275;SDS011;27010;47.718;12.912;2023-01-30T14:27:25;0.70;;;0.50;;
41275;SDS011;27010;47.718;12.912;2023-01-30T14:33:47;0.87;;;0.60;;
41275;SDS011;27010;47.718;12.912;2023-01-30T14:36:50;1.43;;;0.67;;
41275;SDS011;27010;47.718;12.912;2023-01-30T14:39:53;0.73;;;0.60;;
41275;SDS011;27010;47.718;12.912;2023-01-30T14:49:18;0.30;;;0.30;;
41275;SDS011;27010;47.718;12.912;2023-01-30T14:52:36;0.47;;;0.43;;
41275;SDS011;27010;47.718;12.912;2023-01-30T14:55:40;1.17;;;0.50;;
41275;SDS011;27010;47.718;12.912;2023-01-30T14:58:58;0.77;;;0.60;;
41275;SDS011;27010;47.718;12.912;2023-01-30T15:05:16;0.70;;;0.50;;
41275;SDS011;27010;47.718;12.912;2023-01-30T15:08:21;0.80;;;0.50;;
41275;SDS011;27010;47.718;12.912;2023-01-30T15:11:27;0.70;;;0.43;;
41275;SDS011;27010;47.718;12.912;2023-01-30T15:14:33;1.60;;;0.90;;
41275;SDS011;27010;47.718;12.912;2023-01-30T15:21:10;3.37;;;0.70;;
41275;SDS011;27010;47.718;12.912;2023-01-30T15:28:06;1.93;;;0.97;;
41275;SDS011;27010;47.718;12.912;2023-01-30T15:31:19;0.97;;;0.60;;
41275;SDS011;27010;47.718;12.912;2023-01-30T15:34:27;0.80;;;0.70;;
41275;SDS011;27010;47.718;12.912;2023-01-30T15:37:35;1.07;;;0.77;;
41275;SDS011;27010;47.718;12.912;2023-01-30T15:40:40;8.03;;;4.40;;
41275;SDS011;27010;47.718;12.912;2023-01-30T15:50:32;3.60;;;0.77;;
41275;SDS011;27010;47.718;12.912;2023-01-30T15:53:34;1.23;;;0.60;;
41275;SDS011;27010;47.718;12.912;2023-01-30T15:56:40;0.70;;;0.53;;
41275;SDS011;27010;47.718;12.912;2023-01-30T15:59:43;1.67;;;0.80;;
41275;SDS011;27010;47.718;12.912;2023-01-30T16:02:44;2.50;;;0.70;;
41275;SDS011;27010;47.718;12.912;2023-01-30T16:05:50;2.37;;;0.60;;
41275;SDS011;27010;47.718;12.912;2023-01-30T16:08:54;1.23;;;0.60;;
41275;SDS011;27010;47.718;12.912;2023-01-30T16:11:57;0.70;;;0.53;;
41275;SDS011;27010;47.718;12.912;2023-01-30T16:14:59;0.40;;;0.40;;
41275;SDS011;27010;47.718;12.912;2023-01-30T16:24:37;2.17;;;0.70;;
41275;SDS011;27010;47.718;12.912;2023-01-30T16:27:39;0.30;;;0.30;;
41275;SDS011;27010;47.718;12.912;2023-01-30T16:30:41;0.90;;;0.60;;
41275;SDS011;27010;47.718;12.912;2023-01-30T16:33:49;1.47;;;0.40;;
41275;SDS011;27010;47.718;12.912;2023-01-30T16:36:52;2.70;;;1.33;;
41275;SDS011;27010;47.718;12.912;2023-01-30T16:43:18;21.37;;;9.20;;
41275;SDS011;27010;47.718;12.912;2023-01-30T16:46:43;2.53;;;1.50;;
41275;SDS011;27010;47.718;12.912;2023-01-30T16:49:47;0.53;;;0.50;;
41275;SDS011;27010;47.718;12.912;2023-01-30T16:52:50;0.90;;;0.70;;
41275;SDS011;27010;47.718;12.912;2023-01-30T16:55:57;0.80;;;0.70;;
41275;SDS011;27010;47.718;12.912;2023-01-30T16:59:01;0.70;;;0.50;;
41275;SDS011;27010;47.718;12.912;2023-01-30T17:02:04;2.83;;;1.57;;
41275;SDS011;27010;47.718;12.912;2023-01-30T17:05:23;1.67;;;1.20;;
41275;SDS011;27010;47.718;12.912;2023-01-30T17:08:48;1.00;;;0.90;;
41275;SDS011;27010;47.718;12.912;2023-01-30T17:11:56;1.20;;;0.80;;
41275;SDS011;27010;47.718;12.912;2023-01-30T17:18:15;1.00;;;0.70;;
41275;SDS011;27010;47.718;12.912;2023-01-30T17:21:21;1.30;;;1.00;;
41275;SDS011;27010;47.718;12.912;2023-01-30T17:24:24;0.97;;;0.83;;
41275;SDS011;27010;47.718;12.912;2023-01-30T17:27:27;2.47;;;1.23;;
41275;SDS011;27010;47.718;12.912;2023-01-30T17:30:31;1.63;;;1.03;;
41275;SDS011;27010;47.718;12.912;2023-01-30T17:33:36;1.63;;;1.20;;
41275;SDS011;27010;47.718;12.912;2023-01-30T17:36:38;1.77;;;1.00;;
41275;SDS011;27010;47.718;12.912;2023-01-30T17:39:40;1.53;;;1.13;;
41275;SDS011;27010;47.718;12.912;2023-01-30T17:42:43;2.50;;;1.00;;
41275;SDS011;27010;47.718;12.912;2023-01-30T17:45:47;2.30;;;1.33;;
41275;SDS011;27010;47.718;12.912;2023-01-30T17:48:49;2.17;;;1.33;;
41275;SDS011;27010;47.718;12.912;2023-01-30T17:51:52;2.13;;;1.30;;
41275;SDS011;27010;47.718;12.912;2023-01-30T17:54:56;1.27;;;1.00;;
41275;SDS011;27010;47.718;12.912;2023-01-30T17:58:01;1.47;;;1.17;;
41275;SDS011;27010;47.718;12.912;2023-01-30T18:01:03;2.00;;;1.10;;
41275;SDS011;27010;47.718;12.912;2023-01-30T18:04:05;2.20;;;1.10;;
41275;SDS011;27010;47.718;12.912;2023-01-30T18:07:10;3.47;;;1.43;;
41275;SDS011;27010;47.718;12.912;2023-01-30T18:10:15;1.10;;;0.70;;
41275;SDS011;27010;47.718;12.912;2023-01-30T18:13:19;4.10;;;1.30;;
41275;SDS011;27010;47.718;12.912;2023-01-30T18:16:23;2.30;;;1.40;;
41275;SDS011;27010;47.718;12.912;2023-01-30T18:19:29;3.03;;;1.57;;
41275;SDS011;27010;47.718;12.912;2023-01-30T18:22:32;2.13;;;1.30;;
41275;SDS011;27010;47.718;12.912;2023-01-30T18:25:34;2.73;;;1.07;;
41275;SDS011;27010;47.718;12.912;2023-01-30T18:28:36;1.47;;;1.20;;
41275;SDS011;27010;47.718;12.912;2023-01-30T18:31:39;2.73;;;1.00;;
41275;SDS011;27010;47.718;12.912;2023-01-30T18:34:41;1.47;;;1.13;;
41275;SDS011;27010;47.718;12.912;2023-01-30T18:37:43;2.67;;;1.27;;
41275;SDS011;27010;47.718;12.912;2023-01-30T18:40:45;1.50;;;0.90;;
41275;SDS011;27010;47.718;12.912;2023-01-30T18:43:58;1.77;;;0.90;;
41275;SDS011;27010;47.718;12.912;2023-01-30T18:47:01;1.43;;;1.10;;
41275;SDS011;27010;47.718;12.912;2023-01-30T18:50:03;2.27;;;1.40;;
41275;SDS011;27010;47.718;12.912;2023-01-30T18:53:06;2.83;;;1.50;;
41275;SDS011;27010;47.718;12.912;2023-01-30T18:56:16;3.40;;;0.70;;
41275;SDS011;27010;47.718;12.912;2023-01-30T18:59:21;3.07;;;1.50;;
41275;SDS011;27010;47.718;12.912;2023-01-30T19:02:24;2.47;;;1.73;;
41275;SDS011;27010;47.718;12.912;2023-01-30T19:05:26;3.63;;;1.70;;
41275;SDS011;27010;47.718;12.912;2023-01-30T19:08:29;1.83;;;1.23;;
41275;SDS011;27010;47.718;12.912;2023-01-30T19:11:32;2.60;;;1.30;;
41275;SDS011;27010;47.718;12.912;2023-01-30T19:14:55;1.53;;;1.30;;
41275;SDS011;27010;47.718;12.912;2023-01-30T19:17:57;1.97;;;1.40;;
41275;SDS011;27010;47.718;12.912;2023-01-30T19:21:00;2.13;;;1.43;;
41275;SDS011;27010;47.718;12.912;2023-01-30T19:24:05;5.73;;;1.73;;
41275;SDS011;27010;47.718;12.912;2023-01-30T19:27:08;3.40;;;1.70;;
41275;SDS011;27010;47.718;12.912;2023-01-30T19:30:14;4.07;;;1.83;;
41275;SDS011;27010;47.718;12.912;2023-01-30T19:33:16;2.70;;;1.53;;
41275;SDS011;27010;47.718;12.912;2023-01-30T19:36:20;2.73;;;1.50;;
41275;SDS011;27010;47.718;12.912;2023-01-30T19:39:22;1.80;;;1.40;;
41275;SDS011;27010;47.718;12.912;2023-01-30T19:42:24;4.53;;;1.70;;
41275;SDS011;27010;47.718;12.912;2023-01-30T19:45:26;4.20;;;1.70;;
41275;SDS011;27010;47.718;12.912;2023-01-30T19:48:31;3.30;;;1.43;;
41275;SDS011;27010;47.718;12.912;2023-01-30T19:51:34;2.73;;;1.50;;
41275;SDS011;27010;47.718;12.912;2023-01-30T19:54:36;2.80;;;1.47;;
41275;SDS011;27010;47.718;12.912;2023-01-30T19:57:38;4.37;;;1.43;;
41275;SDS011;27010;47.718;12.912;2023-01-30T20:00:40;4.60;;;1.50;;
41275;SDS011;27010;47.718;12.912;2023-01-30T20:03:42;3.50;;;1.10;;
41275;SDS011;27010;47.718;12.912;2023-01-30T20:06:44;3.77;;;1.57;;
41275;SDS011;27010;47.718;12.912;2023-01-30T20:09:46;2.80;;;1.23;;
41275;SDS011;27010;47.718;12.912;2023-01-30T20:12:48;2.30;;;1.17;;
41275;SDS011;27010;47.718;12.912;2023-01-30T20:15:50;2.90;;;1.30;;
41275;SDS011;27010;47.718;12.912;2023-01-30T20:18:54;2.37;;;1.20;;
41275;SDS011;27010;47.718;12.912;2023-01-30T20:21:57;2.47;;;1.43;;
41275;SDS011;27010;47.718;12.912;2023-01-30T20:25:00;3.73;;;1.77;;
41275;SDS011;27010;47.718;12.912;2023-01-30T20:28:02;2.83;;;1.37;;
41275;SDS011;27010;47.718;12.912;2023-01-30T20:31:11;1.73;;;1.27;;
41275;SDS011;27010;47.718;12.912;2023-01-30T20:34:20;3.30;;;1.60;;
41275;SDS011;27010;47.718;12.912;2023-01-30T20:37:23;4.73;;;1.33;;
41275;SDS011;27010;47.718;12.912;2023-01-30T20:40:26;2.80;;;1.10;;
41275;SDS011;27010;47.718;12.912;2023-01-30T20:43:29;5.17;;;1.53;;
41275;SDS011;27010;47.718;12.912;2023-01-30T20:46:50;4.40;;;1.60;;
41275;SDS011;27010;47.718;12.912;2023-01-30T20:49:52;3.97;;;1.53;;